»·PEaware :: DAL2619 KLAS-KSLC

DAL2619 :: KLAS-KSLC

FLIGHT INFORMATION

Flight Status: Arrived
Operator:
Delta Air Lines
More flights by this operator :: More flights under this callsign
Pilot: Max W. (2591)
Aircraft: BOEING 737-800
(B738)
More flights by this aircraft type
Origin: KLAS McCarran Intl
United States
Destination: KSLC Salt Lake City Intl
United States
More flights between these airports :: More routes between these airports
Route: STAAV8 MLF QWENN5
File this flight plan on PilotEdge
Remarks:
Altitude:
(Current/Filed)
31,000ft
Speed:
(Current/Filed)
450kts
Departed: 10-Jun-18 03:36 PM
Arrived: 10-Jun-18 04:28 PM
Distance/Time
Traveled:
319nm/0:52
Distance/Time
To Go:
Arrived

Flight Plot

Page will automatically refresh every two minutes.

Flight plan parsing failed; only flown route is shown


Map Options




Map Legend


Flown Route
Filed Route
Departure Airport
Arrival Airport
Navaid (VOR, NDB)
Fix

Horizontal Profiles

Position Reports

Time Latitude Longitude Heading Altitude Ground
Speed
10-Jun-18 15:19 36.081285 -115.139722 133 2122ft 0kts
10-Jun-18 15:20 36.081285 -115.139722 133 2122ft 0kts
10-Jun-18 15:21 36.081285 -115.139722 133 2122ft 0kts
10-Jun-18 15:22 36.081285 -115.139722 133 2122ft 0kts
10-Jun-18 15:23 36.081285 -115.139722 133 2122ft 0kts
10-Jun-18 15:24 36.081285 -115.139722 133 2122ft 0kts
10-Jun-18 15:25 36.081285 -115.139722 133 2122ft 0kts
10-Jun-18 15:26 36.081285 -115.139722 133 2122ft 0kts
10-Jun-18 15:27 36.081285 -115.139722 133 2122ft 0kts
10-Jun-18 15:28 36.081500 -115.140004 133 2122ft 2kts
10-Jun-18 15:29 36.081878 -115.140501 132 2122ft 0kts
10-Jun-18 15:30 36.081878 -115.140500 132 2122ft 0kts
10-Jun-18 15:31 36.078581 -115.141482 152 2122ft 20kts
10-Jun-18 15:32 36.078254 -115.131561 91 2122ft 29kts
10-Jun-18 15:33 36.077539 -115.121853 106 2122ft 21kts
10-Jun-18 15:34 36.077178 -115.121347 168 2122ft 0kts
10-Jun-18 15:35 36.076319 -115.122100 270 2122ft 16kts
10-Jun-18 15:36 36.076284 -115.163131 267 2668ft 179kts
10-Jun-18 15:37 36.076468 -115.227737 269 4637ft 222kts
10-Jun-18 15:38 36.106753 -115.293103 339 7099ft 246kts
10-Jun-18 15:39 36.169664 -115.273402 48 10027ft 262kts
10-Jun-18 15:40 36.195562 -115.177027 80 11202ft 336kts
10-Jun-18 15:41 36.198398 -115.049311 89 12287ft 400kts
10-Jun-18 15:42 36.199313 -114.908321 89 14406ft 419kts
10-Jun-18 15:43 36.223478 -114.767783 49 16349ft 430kts
10-Jun-18 15:44 36.315561 -114.672625 33 18164ft 439kts
10-Jun-18 15:45 36.413810 -114.579241 33 19896ft 449kts
10-Jun-18 15:46 36.514200 -114.483859 33 21438ft 460kts
10-Jun-18 15:47 36.620959 -114.394676 26 22833ft 466kts
10-Jun-18 15:48 36.732422 -114.309301 27 24071ft 475kts
10-Jun-18 15:49 36.845823 -114.221313 26 25248ft 482kts
10-Jun-18 15:50 36.960622 -114.132168 26 26321ft 489kts
10-Jun-18 15:51 37.077091 -114.041855 25 27301ft 495kts
10-Jun-18 15:52 37.193530 -113.949980 25 28700ft 492kts
10-Jun-18 15:53 37.308960 -113.858717 24 30127ft 489kts
10-Jun-18 15:54 37.423746 -113.767846 24 30902ft 489kts
10-Jun-18 15:55 37.538762 -113.676480 24 30928ft 487kts
10-Jun-18 15:56 37.653293 -113.585090 24 30958ft 488kts
10-Jun-18 15:57 37.768070 -113.492998 25 30990ft 488kts
10-Jun-18 15:58 37.882471 -113.401028 25 31003ft 488kts
10-Jun-18 15:59 37.996690 -113.308898 25 31004ft 487kts
10-Jun-18 16:00 38.111981 -113.215681 24 31003ft 491kts
10-Jun-18 16:01 38.227083 -113.122184 24 30991ft 492kts
10-Jun-18 16:02 38.342249 -113.028289 23 30991ft 490kts
10-Jun-18 16:03 38.464684 -112.957490 12 30990ft 480kts
10-Jun-18 16:04 38.588305 -112.892237 13 30997ft 481kts
10-Jun-18 16:05 38.711871 -112.826141 13 31010ft 482kts
10-Jun-18 16:06 38.835648 -112.758985 14 31027ft 483kts
10-Jun-18 16:07 38.960061 -112.691669 14 31042ft 484kts
10-Jun-18 16:08 39.084431 -112.624482 14 31051ft 486kts
10-Jun-18 16:09 39.209042 -112.556556 14 30780ft 485kts
10-Jun-18 16:10 39.333275 -112.488074 15 27898ft 484kts
10-Jun-18 16:11 39.454568 -112.418418 16 25555ft 471kts
10-Jun-18 16:12 39.572848 -112.350142 17 23250ft 460kts
10-Jun-18 16:13 39.688985 -112.283069 17 20942ft 451kts
10-Jun-18 16:14 39.802464 -112.217393 17 18669ft 442kts
10-Jun-18 16:15 39.912760 -112.153009 17 17033ft 428kts
10-Jun-18 16:16 40.018021 -112.091013 20 14778ft 394kts
10-Jun-18 16:17 40.111573 -112.034319 20 13388ft 355kts
10-Jun-18 16:18 40.198637 -111.981408 22 11689ft 337kts
10-Jun-18 16:19 40.280094 -111.938647 3 10986ft 284kts
10-Jun-18 16:20 40.355270 -111.937125 357 11067ft 269kts
10-Jun-18 16:21 40.427925 -111.934462 357 11007ft 246kts
10-Jun-18 16:22 40.494468 -111.940653 351 9794ft 230kts
10-Jun-18 16:23 40.554975 -111.947665 353 8618ft 215kts
10-Jun-18 16:24 40.614252 -111.954528 353 7472ft 209kts
10-Jun-18 16:25 40.668742 -111.960834 352 6413ft 178kts
10-Jun-18 16:26 40.715262 -111.965934 353 5513ft 163kts
10-Jun-18 16:27 40.759910 -111.971493 353 4594ft 159kts
10-Jun-18 16:28 40.791727 -111.975816 328 4235ft 23kts
10-Jun-18 16:29 40.791376 -111.981481 182 4235ft 21kts

Navigation Log

Ident Type
Flight plan parsing failed, navigation log unavailable